We konden geen weer-waarchuwingen ophalen. Ga rechtstreeks naar de Meteoalarm site : www.meteoalarm.eu en controleer daar .



Bezoek ook deze websites:

Template documentation
and downloads

And another site



METAR rapporten vliegvelden


Warning: A non-numeric value encountered in /home/w16454we/domains/weerstation-smeerebbe-vloerzegem.be/public_html/weather28/metar/metarDisplay.php on line 166

Warning: A non-numeric value encountered in /home/w16454we/domains/weerstation-smeerebbe-vloerzegem.be/public_html/weather28/metar/metarDisplay.php on line 166

Warning: A non-numeric value encountered in /home/w16454we/domains/weerstation-smeerebbe-vloerzegem.be/public_html/weather28/metar/metarDisplay.php on line 166
   
EHVK - Volkel Rnlafb, Netherlands
Afstand tot: ZW 18 km
Gewijzigd: 09-12-2022 20:25
Nevel, Helder  
Nevel, Helder  
   Wind: WZW 7.4 km/h
Wind: WZW 7.4 km/h
Temperatuur: -1°C
Voelt als: -4°C
Dauwpunt: -3°C
Vochtigheid: 86%
Barometer: 1007 hPa
Bewolking: Helder
Zicht: 7 km
Bewolking: Helder
EHVK 091925Z AUTO 24004KT 7000 BR NCD M01/M03 Q1007 WHT
EDLV - Niederrhein, Germany
Afstand tot: ZO 25 km
Gewijzigd: 09-12-2022 20:20
Bewolking  
Bewolking  
   Wind: varieert 3.7 km/h
Wind: varieert 3.7 km/h
Temperatuur: 1°C
Dauwpunt: 0°C
Vochtigheid: 93%
Barometer: 1007 hPa
Bewolking: Bewolking
Zicht: 6 km
Bewolking: Gedeeltelijk bewolkt 1900 ft,
Bewolking 2300 ft
EDLV 091920Z VRB02KT 6000 SCT019 OVC023 01/M00 Q1007
EHDL - Deelen Rnlafb, Netherlands
Afstand tot: N 35 km
Gewijzigd: 09-12-2022 20:25
Nevel, Helder  
Nevel, Helder  
   Wind: varieert 1.9 km/h
Wind: varieert 1.9 km/h
Temperatuur: -3°C
Dauwpunt: -4°C
Vochtigheid: 93%
Barometer: 1007 hPa
Bewolking: Helder
Zicht: 2 km
Bewolking: Helder
EHDL 091925Z AUTO VRB01KT 2100 BR NCD M03/M04 Q1007 YLO
EHEH - Eindhoven Rnlafb, Netherlands
Afstand tot: ZW 48 km
Gewijzigd: 09-12-2022 20:47
Nevel, Grotendeels bewolkt  
Nevel, Grotendeels bewolkt  
   Wind: Zuiden 5.6 km/h
Wind: Zuiden 5.6 km/h
Temperatuur: -2°C
Voelt als: -4°C
Dauwpunt: -4°C
Vochtigheid: 86%
Barometer: 1007 hPa
Bewolking: Grotendeels bewolkt
Zicht: 7 km
Bewolking: Grotendeels bewolkt 1300 ft,
Grotendeels bewolkt 5200 ft
EHEH 091947Z AUTO 19003KT 7000 BR BKN013 BKN052 M02/M04 Q1007 GRN BECMG 4000 BR
EHGR - Gilze-Rijen Rnla, Netherlands
Afstand tot: WZW 70 km
Gewijzigd: 09-12-2022 20:25
Nevel, Helder  
Nevel, Helder  
   Wind: Zuiden 7.4 km/h
Wind: Zuiden 7.4 km/h
Temperatuur: -2°C
Voelt als: -5°C
Dauwpunt: -3°C
Vochtigheid: 93%
Barometer: 1007 hPa
Bewolking: Helder
Zicht: 2 km
Bewolking: Helder
EHGR 091925Z AUTO 18004KT 2400 BR NCD M02/M03 Q1007 YLO
EBBL - Kleine-Brogel(Ba, Belgium
Afstand tot: ZZW 71 km
Gewijzigd: 09-12-2022 20:25
Bewolking  
Bewolking  
   Wind: varieert 3.7 km/h
Wind: varieert 3.7 km/h
Temperatuur: 0°C
Dauwpunt: -2°C
Vochtigheid: 87%
Barometer: 1007 hPa
Bewolking: Bewolking
Zicht: 6 km
Bewolking: Bewolking 1400 ft
EBBL 091925Z AUTO VRB02KT 6000 OVC014/// M00/M02 Q1007 GRN

Script ontwikkeld door  Saratoga-weather.org Aangepast voor de template door  Weerstation Leuven

U vindt ons ook hier:

Het Weer Aktueel

UK Metoffice

WeatherCloud

Weather Underground

AWEKAS

HAMweather, WeatherForYou, PWS Weather

Apparatuur in gebruik:

Weerstation
Davis Vantage Vue

Weerprogramma
Meteobridge

Davis Vantage Vue

Meteobridge